createdAt,value
2023-05-01T00:00:47.411Z,100235.34
2023-05-01T00:03:49.532Z,100242.47
2023-05-01T00:06:53.066Z,100207.06
2023-05-01T00:09:55.358Z,100253.88
2023-05-01T00:12:57.369Z,100187.28
2023-05-01T00:15:59.348Z,100200.69
2023-05-01T00:19:04.181Z,100192.56
2023-05-01T00:22:07.653Z,100176.56
2023-05-01T00:25:12.380Z,100206.25
2023-05-01T00:28:14.274Z,100177.94
2023-05-01T00:31:16.199Z,100198.25
2023-05-01T00:34:18.107Z,100175.00
2023-05-01T00:37:21.474Z,100184.72
2023-05-01T00:40:23.410Z,100199.91
2023-05-01T00:43:25.382Z,100169.97
2023-05-01T00:46:28.596Z,100166.78
2023-05-01T00:49:30.671Z,100162.22
2023-05-01T00:52:34.432Z,100213.06
2023-05-01T00:55:37.350Z,100173.75
2023-05-01T00:58:40.430Z,100209.25
2023-05-01T01:01:42.902Z,100229.47
2023-05-01T01:04:46.738Z,100214.97
2023-05-01T01:07:58.245Z,100200.16
2023-05-01T01:11:21.693Z,100174.69
2023-05-01T01:14:33.144Z,100248.25
2023-05-01T01:17:42.556Z,100195.75
2023-05-01T01:20:50.061Z,100183.63
2023-05-01T01:24:18.433Z,100238.22
2023-05-01T01:27:42.923Z,100250.22
2023-05-01T01:31:06.373Z,100239.78
2023-05-01T01:34:17.688Z,100243.41
2023-05-01T01:37:24.273Z,100188.94
2023-05-01T01:40:33.506Z,100161.25
2023-05-01T01:43:40.297Z,100212.59
2023-05-01T01:46:43.309Z,100168.72
2023-05-01T01:49:50.118Z,100223.59
2023-05-01T01:52:54.169Z,100172.72
2023-05-01T01:55:58.193Z,100194.75
2023-05-01T01:59:02.001Z,100181.06
2023-05-01T02:02:05.702Z,100194.31
2023-05-01T02:05:12.569Z,100232.63
2023-05-01T02:08:16.007Z,100199.22
2023-05-01T02:11:21.214Z,100197.41
2023-05-01T02:14:26.652Z,100204.41
2023-05-01T02:17:29.399Z,100169.72
2023-05-01T02:20:33.704Z,100184.34
2023-05-01T02:23:36.520Z,100188.22
2023-05-01T02:26:42.773Z,100181.94
2023-05-01T02:29:44.913Z,100173.19
2023-05-01T02:32:46.897Z,100179.31
2023-05-01T02:35:50.335Z,100211.91
2023-05-01T02:38:52.515Z,100242.28
2023-05-01T02:41:56.103Z,100175.84
2023-05-01T02:45:03.101Z,100203.44
2023-05-01T02:48:07.445Z,100180.88
2023-05-01T02:51:11.883Z,100195.09
2023-05-01T02:54:14.441Z,100237.44
2023-05-01T02:57:18.199Z,100188.28
2023-05-01T03:00:20.898Z,100180.16
2023-05-01T03:03:23.040Z,100222.66
2023-05-01T03:06:29.167Z,100200.38
2023-05-01T03:09:31.711Z,100183.09
2023-05-01T03:12:33.955Z,100246.22
2023-05-01T03:15:35.932Z,100200.41
2023-05-01T03:18:37.925Z,100202.44
2023-05-01T03:21:41.396Z,100196.59
2023-05-01T03:24:43.377Z,100199.63
2023-05-01T03:27:45.285Z,100234.69
2023-05-01T03:30:47.511Z,100203.75
2023-05-01T03:33:50.180Z,100207.47
2023-05-01T03:36:54.464Z,100228.38
2023-05-01T03:39:57.141Z,100222.06
2023-05-01T03:42:59.381Z,100229.16
2023-05-01T03:46:04.355Z,100274.47
2023-05-01T03:49:08.539Z,100200.59
2023-05-01T03:52:12.708Z,100216.59
2023-05-01T03:55:14.833Z,100246.19
2023-05-01T03:58:16.812Z,100222.19
2023-05-01T04:01:21.597Z,100256.91
2023-05-01T04:04:23.665Z,100218.44
2023-05-01T04:07:27.290Z,100282.03
2023-05-01T04:10:29.267Z,100204.63
2023-05-01T04:13:31.488Z,100207.69
2023-05-01T04:16:33.681Z,100215.56
2023-05-01T04:19:35.908Z,100207.06
2023-05-01T04:22:39.182Z,100277.56
2023-05-01T04:25:41.134Z,100219.88
2023-05-01T04:28:43.229Z,100249.66
2023-05-01T04:31:45.257Z,100211.50
2023-05-01T04:34:47.221Z,100232.91
2023-05-01T04:37:50.757Z,100213.75
2023-05-01T04:40:52.725Z,100223.44
2023-05-01T04:43:54.655Z,100234.56
2023-05-01T04:46:56.724Z,100272.78
2023-05-01T04:49:58.825Z,100254.69
2023-05-01T04:53:02.093Z,100250.59
2023-05-01T04:56:04.365Z,100237.72
2023-05-01T04:59:06.432Z,100236.16
2023-05-01T05:02:09.047Z,100252.81
2023-05-01T05:05:11.068Z,100247.78
2023-05-01T05:08:14.413Z,100246.75
2023-05-01T05:11:16.365Z,100237.13
2023-05-01T05:14:18.411Z,100296.78
2023-05-01T05:17:20.269Z,100303.19
2023-05-01T05:20:22.312Z,100259.88
2023-05-01T05:23:25.747Z,100251.91
2023-05-01T05:26:28.222Z,100244.19
2023-05-01T05:29:30.145Z,100256.63
2023-05-01T05:32:32.341Z,100260.03
2023-05-01T05:35:34.320Z,100249.69
2023-05-01T05:38:38.023Z,100263.22
2023-05-01T05:41:40.054Z,100267.22
2023-05-01T05:44:41.951Z,100265.34
2023-05-01T05:47:44.022Z,100261.53
2023-05-01T05:50:45.996Z,100296.84
2023-05-01T05:53:49.798Z,100264.69
2023-05-01T05:56:51.811Z,100295.66
2023-05-01T05:59:54.664Z,100258.03
2023-05-01T06:02:56.838Z,100254.34
2023-05-01T06:05:59.257Z,100214.75
2023-05-01T06:09:03.841Z,100266.22
2023-05-01T06:12:06.272Z,100250.88
2023-05-01T06:15:09.187Z,100225.84
2023-05-01T06:18:12.015Z,100196.19
2023-05-01T06:21:14.049Z,100196.38
2023-05-01T06:24:17.632Z,100207.69
2023-05-01T06:27:19.532Z,100228.69
2023-05-01T06:30:22.100Z,100279.72
2023-05-01T06:33:24.168Z,100269.22
2023-05-01T06:36:26.215Z,100261.97
2023-05-01T06:39:31.873Z,100287.78
2023-05-01T06:42:33.840Z,100329.53
2023-05-01T06:45:35.979Z,100280.34
2023-05-01T06:48:37.922Z,100313.88
2023-05-01T06:51:39.888Z,100274.47
2023-05-01T06:54:43.333Z,100259.03
2023-05-01T06:57:45.415Z,100262.19
2023-05-01T07:00:47.896Z,100277.53
2023-05-01T07:03:49.771Z,100263.38
2023-05-01T07:06:51.848Z,100250.78
2023-05-01T07:09:55.650Z,100270.69
2023-05-01T07:12:57.954Z,100273.25
2023-05-01T07:15:59.983Z,100289.59
2023-05-01T07:19:02.085Z,100297.03
2023-05-01T07:22:04.853Z,100307.50
2023-05-01T07:25:09.479Z,100321.22
2023-05-01T07:28:11.604Z,100319.44
2023-05-01T07:31:13.617Z,100250.66
2023-05-01T07:34:17.700Z,100282.16
2023-05-01T07:37:19.698Z,100255.53
2023-05-01T07:40:23.058Z,100312.03
2023-05-01T07:43:26.769Z,100289.38
2023-05-01T07:46:28.855Z,100255.97
2023-05-01T07:49:35.379Z,100243.41
2023-05-01T07:52:37.913Z,100233.19
2023-05-01T07:55:41.764Z,100259.31
2023-05-01T07:58:44.190Z,100282.41
2023-05-01T08:01:46.130Z,100262.94
2023-05-01T08:04:48.517Z,100265.72
2023-05-01T08:07:50.523Z,100251.84
2023-05-01T08:10:54.832Z,100267.53
2023-05-01T08:13:56.835Z,100260.06
2023-05-01T08:16:58.797Z,100260.50
2023-05-01T08:20:00.894Z,100295.25
2023-05-01T08:23:03.160Z,100316.88
2023-05-01T08:26:09.761Z,100243.19
2023-05-01T08:29:12.013Z,100257.94
2023-05-01T08:32:14.796Z,100251.41
2023-05-01T08:35:16.933Z,100248.28
2023-05-01T08:38:18.918Z,100246.63
2023-05-01T08:41:23.054Z,100248.28
2023-05-01T08:44:26.704Z,100266.59
2023-05-01T08:47:30.661Z,100264.19
2023-05-01T08:50:36.539Z,100241.28
2023-05-01T08:53:39.404Z,100233.63
2023-05-01T08:56:44.734Z,100252.69
2023-05-01T08:59:51.184Z,100236.88
2023-05-01T09:02:53.241Z,100255.16
2023-05-01T09:05:55.393Z,100239.38
2023-05-01T09:08:57.829Z,100267.13
2023-05-01T09:12:11.570Z,100215.94
2023-05-01T09:15:13.906Z,100221.09
2023-05-01T09:18:16.009Z,100286.97
2023-05-01T09:21:18.279Z,100247.63
2023-05-01T09:24:20.224Z,100230.00
2023-05-01T09:27:24.050Z,100256.88
2023-05-01T09:30:34.296Z,100215.66
2023-05-01T09:33:54.191Z,100230.16
2023-05-01T09:36:56.187Z,100218.63
2023-05-01T09:40:04.487Z,100218.44
2023-05-01T09:43:09.915Z,100228.94
2023-05-01T09:46:13.331Z,100271.59
2023-05-01T09:49:16.227Z,100226.53
2023-05-01T09:52:18.262Z,100284.69
2023-05-01T09:55:20.951Z,100204.38
2023-05-01T09:58:33.006Z,100212.69
2023-05-01T10:01:39.660Z,100202.81
2023-05-01T10:04:41.953Z,100234.41
2023-05-01T10:07:57.493Z,100229.66
2023-05-01T10:11:05.362Z,100199.38
2023-05-01T10:14:10.353Z,100196.59
2023-05-01T10:17:19.979Z,100214.97
2023-05-01T10:20:22.078Z,100230.75
2023-05-01T10:23:25.524Z,100183.44
2023-05-01T10:26:27.691Z,100177.81
2023-05-01T10:29:32.135Z,100166.41
2023-05-01T10:32:35.274Z,100229.97
2023-05-01T10:35:40.716Z,100188.22
2023-05-01T10:38:48.280Z,100194.81
2023-05-01T10:42:03.939Z,100190.44
2023-05-01T10:45:31.185Z,100170.97
2023-05-01T10:48:58.025Z,100220.22
2023-05-01T10:52:04.415Z,100164.06
2023-05-01T10:55:34.870Z,100218.84
2023-05-01T10:58:57.802Z,100155.00
2023-05-01T11:02:24.026Z,100150.56
2023-05-01T11:06:06.325Z,100158.06
2023-05-01T11:09:39.358Z,100173.78
2023-05-01T11:12:51.893Z,100163.28
2023-05-01T11:15:54.230Z,100151.97
2023-05-01T11:18:57.741Z,100150.34
2023-05-01T11:22:02.761Z,100207.72
2023-05-01T11:25:18.200Z,100144.97
2023-05-01T11:28:21.687Z,100141.09
2023-05-01T11:31:24.603Z,100168.00
2023-05-01T11:34:28.599Z,100139.00
2023-05-01T11:37:44.417Z,100125.06
2023-05-01T11:40:54.107Z,100124.28
2023-05-01T11:43:58.524Z,100115.97
2023-05-01T11:47:02.329Z,100128.53
2023-05-01T11:50:07.544Z,100133.53
2023-05-01T11:53:11.984Z,100173.56
2023-05-01T11:56:26.574Z,100137.69
2023-05-01T11:59:30.681Z,100116.69
2023-05-01T12:02:33.544Z,100147.13
2023-05-01T12:05:39.289Z,100094.16
2023-05-01T12:08:47.613Z,100111.09
2023-05-01T12:11:52.810Z,100120.16
2023-05-01T12:14:55.977Z,100142.28
2023-05-01T12:17:59.070Z,100090.88
2023-05-01T12:21:04.670Z,100138.78
2023-05-01T12:24:10.647Z,100093.72
2023-05-01T12:27:13.788Z,100138.91
2023-05-01T12:30:25.346Z,100076.34
2023-05-01T12:33:27.371Z,100078.38
2023-05-01T12:36:33.219Z,100069.78
2023-05-01T12:39:39.353Z,100078.31
2023-05-01T12:42:41.633Z,100105.94
2023-05-01T12:45:43.762Z,100072.31
2023-05-01T12:48:46.089Z,100073.13
2023-05-01T12:51:50.306Z,100086.31
2023-05-01T12:55:02.407Z,100127.38
2023-05-01T12:58:05.521Z,100052.97
2023-05-01T13:01:07.588Z,100065.66
2023-05-01T13:04:09.590Z,100035.19
2023-05-01T13:07:15.140Z,100044.47
2023-05-01T13:10:31.527Z,100041.19
2023-05-01T13:13:36.006Z,100037.94
2023-05-01T13:16:46.300Z,100029.00
2023-05-01T13:19:54.589Z,100037.00
2023-05-01T13:23:09.684Z,100015.47
2023-05-01T13:26:11.874Z,100029.91
2023-05-01T13:29:15.655Z,100047.59
2023-05-01T13:32:18.011Z,100017.84
2023-05-01T13:35:24.668Z,100002.50
2023-05-01T13:38:29.249Z,100009.28
2023-05-01T13:41:31.220Z,100002.03
2023-05-01T13:44:33.256Z,100002.03
2023-05-01T13:47:40.444Z,99988.00
2023-05-01T13:50:43.000Z,99993.56
2023-05-01T13:53:46.386Z,100039.09
2023-05-01T13:56:48.479Z,99979.53
2023-05-01T13:59:50.456Z,99988.81
2023-05-01T14:02:54.175Z,99988.16
2023-05-01T14:05:58.082Z,100033.69
2023-05-01T14:09:01.607Z,100025.94
2023-05-01T14:12:03.934Z,99967.31
2023-05-01T14:15:09.587Z,99984.34
2023-05-01T14:18:15.664Z,99966.03
2023-05-01T14:21:18.828Z,99959.84
2023-05-01T14:24:24.132Z,99962.09
2023-05-01T14:27:26.203Z,99965.88
2023-05-01T14:30:30.056Z,99955.31
2023-05-01T14:33:33.738Z,99950.00
2023-05-01T14:36:35.807Z,99955.47
2023-05-01T14:39:39.665Z,99985.72
2023-05-01T14:42:43.537Z,99949.59
2023-05-01T14:45:48.210Z,99962.81
2023-05-01T14:48:50.137Z,99962.66
2023-05-01T14:51:54.073Z,99941.28
2023-05-01T14:54:57.489Z,99962.25
2023-05-01T14:57:59.534Z,99924.50
2023-05-01T15:01:02.637Z,99968.50
2023-05-01T15:04:07.677Z,99993.38
2023-05-01T15:07:09.561Z,99991.34
2023-05-01T15:10:13.105Z,99977.91
2023-05-01T15:13:15.154Z,100001.44
2023-05-01T15:16:17.365Z,99976.13
2023-05-01T15:19:19.687Z,99945.38
2023-05-01T15:22:21.767Z,99979.09
2023-05-01T15:25:26.888Z,99983.28
2023-05-01T15:28:29.207Z,99968.66
2023-05-01T15:31:33.068Z,99927.53
2023-05-01T15:34:35.031Z,99903.31
2023-05-01T15:37:37.093Z,99927.25
2023-05-01T15:40:43.270Z,99926.97
2023-05-01T15:43:45.155Z,99904.09
2023-05-01T15:46:48.658Z,99923.88
2023-05-01T15:49:50.664Z,99909.84
2023-05-01T15:52:52.850Z,99915.66
2023-05-01T15:55:58.575Z,99904.34
2023-05-01T15:59:02.446Z,99898.56
2023-05-01T16:02:04.436Z,99927.94
2023-05-01T16:05:08.656Z,99901.09
2023-05-01T16:08:10.539Z,99914.28
2023-05-01T16:11:14.014Z,99919.06
2023-05-01T16:14:16.415Z,99975.88
2023-05-01T16:17:19.772Z,99913.28
2023-05-01T16:20:23.472Z,99936.63
2023-05-01T16:23:26.774Z,99926.28
2023-05-01T16:26:31.131Z,99917.81
2023-05-01T16:29:33.466Z,99928.78
2023-05-01T16:32:35.520Z,99933.50
2023-05-01T16:35:40.632Z,99970.91
2023-05-01T16:38:42.697Z,99904.38
2023-05-01T16:41:46.970Z,99951.88
2023-05-01T16:44:48.861Z,99944.66
2023-05-01T16:47:53.702Z,99912.81
2023-05-01T16:50:55.946Z,99901.44
2023-05-01T16:53:57.961Z,99909.06
2023-05-01T16:57:01.824Z,99922.06
2023-05-01T17:00:05.421Z,99959.91
2023-05-01T17:03:09.380Z,99904.66
2023-05-01T17:06:11.639Z,99901.88
2023-05-01T17:09:13.698Z,99912.16
2023-05-01T17:12:17.563Z,99946.00
2023-05-01T17:15:19.629Z,99913.44
2023-05-01T17:18:21.713Z,99909.22
2023-05-01T17:21:25.170Z,99916.13
2023-05-01T17:24:27.726Z,99922.81
2023-05-01T17:27:35.739Z,99938.81
2023-05-01T17:30:37.726Z,99904.16
2023-05-01T17:33:42.706Z,99929.44
2023-05-01T17:36:44.923Z,99903.03
2023-05-01T17:39:47.226Z,99919.81
2023-05-01T17:42:50.920Z,99898.44
2023-05-01T17:45:53.019Z,99906.81
2023-05-01T17:48:55.072Z,99910.84
2023-05-01T17:51:57.127Z,99919.81
2023-05-01T17:54:59.710Z,99974.91
2023-05-01T17:58:03.070Z,99972.44
2023-05-01T18:01:08.979Z,99927.53
2023-05-01T18:04:11.549Z,99914.78
2023-05-01T18:07:14.380Z,99900.47
2023-05-01T18:10:16.970Z,99881.84
2023-05-01T18:13:28.288Z,99900.91
2023-05-01T18:16:31.177Z,99904.06
2023-05-01T18:19:33.428Z,99917.81
2023-05-01T18:22:36.066Z,99925.72
2023-05-01T18:25:39.883Z,99914.06
2023-05-01T18:28:43.537Z,99922.97
2023-05-01T18:31:46.006Z,99902.91
2023-05-01T18:34:51.479Z,99912.50
2023-05-01T18:37:54.499Z,99936.69
2023-05-01T18:40:58.347Z,100001.38
2023-05-01T18:44:02.705Z,99947.72
2023-05-01T18:47:05.499Z,99962.22
2023-05-01T18:50:10.416Z,99964.59
2023-05-01T18:53:13.368Z,99935.66
2023-05-01T18:56:17.234Z,99955.31
2023-05-01T18:59:22.273Z,99960.81
2023-05-01T19:02:25.193Z,99952.66
2023-05-01T19:05:27.607Z,99993.09
2023-05-01T19:08:32.566Z,99955.03
2023-05-01T19:11:35.743Z,99982.59
2023-05-01T19:14:39.510Z,100015.84
2023-05-01T19:17:42.362Z,100019.19
2023-05-01T19:20:46.573Z,100004.19
2023-05-01T19:23:50.449Z,100010.69
2023-05-01T19:26:53.312Z,100013.88
2023-05-01T19:30:01.614Z,99973.13
2023-05-01T19:33:05.001Z,100007.03
2023-05-01T19:36:10.318Z,100020.19
2023-05-01T19:39:13.098Z,100013.03
2023-05-01T19:42:19.449Z,100012.00
2023-05-01T19:45:22.950Z,100015.22
2023-05-01T19:48:25.657Z,99981.25
2023-05-01T19:51:30.646Z,100008.06
2023-05-01T19:54:33.458Z,99950.63
2023-05-01T19:57:35.658Z,99979.03
2023-05-01T20:00:39.564Z,100003.66
2023-05-01T20:03:41.955Z,100038.47
2023-05-01T20:06:44.858Z,100039.97
2023-05-01T20:09:47.963Z,100039.16
2023-05-01T20:12:50.532Z,99980.25
2023-05-01T20:15:53.960Z,99996.22
2023-05-01T20:18:56.526Z,99983.09
2023-05-01T20:21:58.606Z,100010.41
2023-05-01T20:25:00.584Z,99992.75
2023-05-01T20:28:04.676Z,100021.66
2023-05-01T20:31:08.578Z,99970.75
2023-05-01T20:34:10.716Z,100040.28
2023-05-01T20:37:13.254Z,100019.19
2023-05-01T20:40:16.933Z,99986.75
2023-05-01T20:43:19.231Z,100001.41
2023-05-01T20:46:23.184Z,100038.47
2023-05-01T20:49:25.382Z,100027.19
2023-05-01T20:52:27.930Z,99986.53
2023-05-01T20:55:30.046Z,100024.72
2023-05-01T20:58:32.101Z,99986.31
2023-05-01T21:01:35.627Z,100027.41
2023-05-01T21:04:41.633Z,100014.91
2023-05-01T21:07:44.787Z,99991.44
2023-05-01T21:10:46.669Z,100000.13
2023-05-01T21:13:48.586Z,100021.69
2023-05-01T21:16:52.088Z,100018.28
2023-05-01T21:19:54.304Z,100007.94
2023-05-01T21:22:56.311Z,99997.75
2023-05-01T21:25:58.223Z,100020.22
2023-05-01T21:29:00.659Z,100046.31
2023-05-01T21:32:05.052Z,100061.97
2023-05-01T21:35:08.092Z,100001.81
2023-05-01T21:38:10.751Z,99999.97
2023-05-01T21:41:14.094Z,99988.47
2023-05-01T21:44:16.123Z,100026.94
2023-05-01T21:47:19.598Z,100072.31
2023-05-01T21:50:22.126Z,100048.94
2023-05-01T21:53:24.491Z,100011.97
2023-05-01T21:56:26.799Z,100024.72
2023-05-01T21:59:34.067Z,100004.72
2023-05-01T22:02:42.005Z,100073.75
2023-05-01T22:05:44.031Z,100055.97
2023-05-01T22:08:46.297Z,100013.25
2023-05-01T22:11:48.264Z,100012.59
2023-05-01T22:14:50.482Z,100038.72
2023-05-01T22:17:53.904Z,100073.59
2023-05-01T22:20:56.105Z,100041.69
2023-05-01T22:23:58.073Z,100047.16
2023-05-01T22:27:00.033Z,100024.03
2023-05-01T22:30:02.601Z,100006.69
2023-05-01T22:33:06.811Z,100011.34
2023-05-01T22:36:08.778Z,100011.91
2023-05-01T22:39:10.805Z,100007.81
2023-05-01T22:42:12.858Z,100011.25
2023-05-01T22:45:15.248Z,100053.22
2023-05-01T22:48:18.846Z,100015.78
2023-05-01T22:51:20.840Z,100007.03
2023-05-01T22:54:22.801Z,99993.72
2023-05-01T22:57:24.815Z,99990.75
2023-05-01T23:00:27.087Z,100030.22
2023-05-01T23:03:32.296Z,100020.22
2023-05-01T23:06:34.284Z,100065.06
2023-05-01T23:09:36.210Z,99995.00
2023-05-01T23:12:42.680Z,100056.66
2023-05-01T23:15:46.599Z,100041.34
2023-05-01T23:18:49.931Z,99975.84
2023-05-01T23:22:07.028Z,99991.50
2023-05-01T23:25:13.853Z,100038.94
2023-05-01T23:28:22.187Z,100011.59
2023-05-01T23:31:27.914Z,100063.78
2023-05-01T23:34:31.875Z,100063.03
2023-05-01T23:37:33.754Z,100062.66
2023-05-01T23:40:37.092Z,100067.97
2023-05-01T23:43:39.569Z,100065.59
2023-05-01T23:46:42.137Z,100059.25
2023-05-01T23:49:45.619Z,100066.88
2023-05-01T23:52:47.621Z,99991.00
2023-05-01T23:55:49.663Z,99993.13
2023-05-01T23:58:51.928Z,99994.94
